Time;durP1;ratioP1;P1;durP2;ratioP2;P2;SDS_P1;SDS_P2;PMS_P1;PMS_P2;Temp;Humidity;BMP_temperature;BMP_pressure;BME280_temperature;BME280_humidity;BME280_pressure;Samples;Min_cycle;Max_cycle;Signal;HPM_P1;HPM_P2
2021/06/19 00:02:10;;;;;;;10.05;2.70;;;;;;;;;;6115679;29;20052;-72
2021/06/19 00:05:14;;;;;;;6.93;2.60;;;;;;;;;;6105612;29;20145;-72
2021/06/19 00:08:16;;;;;;;4.22;2.97;;;;;;;;;;6108653;29;20588;-76
2021/06/19 00:11:18;;;;;;;3.90;2.55;;;;;;;;;;6101765;28;20054;-76
2021/06/19 00:14:20;;;;;;;5.68;2.70;;;;;;;;;;6105674;29;20059;-74
2021/06/19 00:17:22;;;;;;;5.13;2.58;;;;;;;;;;6105441;29;20052;-74
2021/06/19 00:20:27;;;;;;;4.00;2.70;;;;;;;;;;6109045;29;20144;-75
2021/06/19 00:23:29;;;;;;;4.55;2.50;;;;;;;;;;6102681;29;20768;-74
2021/06/19 00:26:30;;;;;;;3.03;2.38;;;;;;;;;;6109044;29;20048;-74
2021/06/19 00:29:32;;;;;;;5.70;2.70;;;;;;;;;;6107560;29;20607;-74
2021/06/19 00:32:34;;;;;;;3.88;2.35;;;;;;;;;;6107838;29;20060;-75
2021/06/19 00:35:37;;;;;;;5.20;2.30;;;;;;;;;;6106314;29;20051;-76
2021/06/19 00:38:39;;;;;;;;;;;;;;;;;;6113273;29;20522;-74
2021/06/19 00:41:41;;;;;;;3.80;2.45;;;;;;;;;;6104235;29;19929;-74
2021/06/19 00:44:42;;;;;;;3.85;2.75;;;;;;;;;;6106964;29;20053;-75
2021/06/19 00:47:45;;;;;;;5.43;2.50;;;;;;;;;;6105800;29;20075;-74
2021/06/19 00:50:49;;;;;;;5.13;2.45;;;;;;;;;;6110965;29;20118;-73
2021/06/19 00:53:51;;;;;;;2.83;2.28;;;;;;;;;;6103596;29;20052;-74
2021/06/19 00:56:53;;;;;;;4.00;2.30;;;;;;;;;;6113029;29;20063;-74
2021/06/19 00:59:57;;;;;;;2.92;2.20;;;;;;;;;;6110419;29;20079;-74
2021/06/19 01:03:07;;;;;;;4.45;2.53;;;;;;;;;;6106156;29;20075;-74
2021/06/19 01:06:10;;;;;;;3.78;2.63;;;;;;;;;;6109502;29;20055;-74
2021/06/19 01:09:11;;;;;;;;;;;;;;;;;;6455397;23;20462;-67
2021/06/19 01:12:13;;;;;;;5.10;2.42;;;;;;;;;;6174372;28;19968;-67
2021/06/19 01:15:15;;;;;;;4.18;2.40;;;;;;;;;;6175562;28;20054;-67
2021/06/19 01:18:17;;;;;;;5.93;2.35;;;;;;;;;;6189107;28;20134;-67
2021/06/19 01:21:23;;;;;;;4.63;2.40;;;;;;;;;;6181060;28;20551;-67
2021/06/19 01:24:24;;;;;;;2.97;2.50;;;;;;;;;;6179055;28;20050;-67
2021/06/19 01:27:28;;;;;;;3.38;2.40;;;;;;;;;;6180437;28;20050;-67
2021/06/19 01:30:30;;;;;;;5.78;2.65;;;;;;;;;;6176979;28;20093;-67
2021/06/19 01:33:32;;;;;;;7.25;2.38;;;;;;;;;;6181080;28;20181;-67
2021/06/19 01:36:33;;;;;;;4.65;2.13;;;;;;;;;;6178781;28;20495;-67
2021/06/19 01:39:35;;;;;;;3.63;2.20;;;;;;;;;;6179172;28;20173;-68
2021/06/19 01:42:40;;;;;;;3.33;2.22;;;;;;;;;;6182427;28;20446;-67
2021/06/19 01:45:42;;;;;;;4.43;2.60;;;;;;;;;;6180646;28;20502;-68
2021/06/19 01:48:44;;;;;;;3.40;2.10;;;;;;;;;;6168310;28;20150;-68
2021/06/19 01:51:45;;;;;;;4.10;2.20;;;;;;;;;;6171766;28;20128;-68
2021/06/19 01:54:47;;;;;;;4.55;2.40;;;;;;;;;;6180026;28;20553;-68
2021/06/19 01:57:53;;;;;;;4.38;2.40;;;;;;;;;;6177932;28;20605;-68
2021/06/19 02:00:54;;;;;;;2.47;2.28;;;;;;;;;;6179786;28;20046;-67
2021/06/19 02:03:56;;;;;;;6.13;2.28;;;;;;;;;;6182524;28;20186;-68
2021/06/19 02:06:58;;;;;;;4.43;2.30;;;;;;;;;;6174559;28;20047;-67
2021/06/19 02:10:00;;;;;;;6.32;2.47;;;;;;;;;;6142392;28;20141;-67
2021/06/19 02:13:05;;;;;;;3.00;2.47;;;;;;;;;;6132323;28;20050;-67
2021/06/19 02:16:06;;;;;;;4.47;3.17;;;;;;;;;;6126393;29;20091;-67
2021/06/19 02:19:08;;;;;;;3.38;2.80;;;;;;;;;;6133200;28;20134;-67
2021/06/19 02:22:10;;;;;;;2.58;2.22;;;;;;;;;;6136908;28;20047;-67
2021/06/19 02:25:14;;;;;;;3.10;2.10;;;;;;;;;;6136893;28;20071;-67
2021/06/19 02:28:17;;;;;;;3.95;2.15;;;;;;;;;;6140761;28;20074;-66
2021/06/19 02:31:20;;;;;;;2.42;2.20;;;;;;;;;;6143063;28;20086;-67
2021/06/19 02:34:22;;;;;;;2.65;2.22;;;;;;;;;;6142173;28;20051;-67
2021/06/19 02:37:24;;;;;;;4.03;2.30;;;;;;;;;;6131495;28;20071;-67
2021/06/19 02:40:26;;;;;;;3.03;2.33;;;;;;;;;;6133972;28;20154;-67
2021/06/19 02:43:28;;;;;;;2.92;2.10;;;;;;;;;;6141324;28;20051;-67
2021/06/19 02:46:30;;;;;;;2.47;2.08;;;;;;;;;;6137196;28;20094;-68
2021/06/19 02:49:32;;;;;;;2.88;2.28;;;;;;;;;;6134970;29;20055;-68
2021/06/19 02:52:34;;;;;;;4.25;2.22;;;;;;;;;;6139523;28;20134;-68
2021/06/19 02:55:38;;;;;;;3.25;2.25;;;;;;;;;;6136969;28;20035;-67
2021/06/19 02:58:40;;;;;;;;;;;;;;;;;;6130787;28;20079;-67
2021/06/19 03:01:42;;;;;;;5.10;2.17;;;;;;;;;;6127430;28;20013;-68
2021/06/19 03:04:43;;;;;;;2.80;2.53;;;;;;;;;;6121167;28;20691;-67
2021/06/19 03:07:45;;;;;;;4.88;2.50;;;;;;;;;;6133447;28;20190;-68
2021/06/19 03:10:48;;;;;;;4.65;2.67;;;;;;;;;;6149648;28;20158;-67
2021/06/19 03:13:51;;;;;;;6.97;2.78;;;;;;;;;;6153593;28;20133;-67
2021/06/19 03:16:54;;;;;;;3.58;2.53;;;;;;;;;;6152843;28;20082;-67
2021/06/19 03:19:56;;;;;;;5.05;2.60;;;;;;;;;;6147712;28;20057;-67
2021/06/19 03:22:59;;;;;;;4.70;2.70;;;;;;;;;;6154266;28;20066;-67
2021/06/19 03:26:00;;;;;;;3.55;2.92;;;;;;;;;;6154239;28;20058;-68
2021/06/19 03:29:05;;;;;;;5.43;2.40;;;;;;;;;;6147364;28;20079;-69
2021/06/19 03:32:07;;;;;;;9.70;3.65;;;;;;;;;;6156758;28;20047;-68
2021/06/19 03:35:10;;;;;;;6.20;2.93;;;;;;;;;;6151089;28;20055;-68
2021/06/19 03:38:13;;;;;;;7.35;2.95;;;;;;;;;;6153900;28;20082;-68
2021/06/19 03:41:14;;;;;;;5.28;2.67;;;;;;;;;;6157231;28;20083;-68
2021/06/19 03:44:17;;;;;;;4.80;2.80;;;;;;;;;;6152484;28;20142;-68
2021/06/19 03:47:19;;;;;;;4.70;2.50;;;;;;;;;;6154161;28;20050;-68
2021/06/19 03:50:22;;;;;;;5.18;2.83;;;;;;;;;;6161383;28;20050;-68
2021/06/19 03:53:23;;;;;;;4.88;2.92;;;;;;;;;;6176897;28;20043;-68
2021/06/19 03:56:25;;;;;;;6.68;2.92;;;;;;;;;;6164214;28;20459;-68
2021/06/19 03:59:28;;;;;;;5.40;2.65;;;;;;;;;;6153632;28;20142;-68
2021/06/19 04:02:29;;;;;;;10.15;3.03;;;;;;;;;;6154654;28;20198;-68
2021/06/19 04:05:31;;;;;;;4.05;2.72;;;;;;;;;;6155526;28;20462;-68
2021/06/19 04:08:33;;;;;;;12.02;3.05;;;;;;;;;;6153194;28;20051;-68
2021/06/19 04:11:35;;;;;;;8.50;3.03;;;;;;;;;;6154333;28;20554;-68
2021/06/19 04:14:37;;;;;;;11.93;3.25;;;;;;;;;;6155374;28;20088;-68
2021/06/19 04:17:39;;;;;;;5.38;2.72;;;;;;;;;;6152295;28;20505;-68
2021/06/19 04:20:41;;;;;;;7.60;2.85;;;;;;;;;;6142665;28;20225;-68
2021/06/19 04:23:43;;;;;;;8.70;2.97;;;;;;;;;;6159421;28;20132;-68
2021/06/19 04:26:45;;;;;;;5.78;2.47;;;;;;;;;;6152548;28;20584;-68
2021/06/19 04:29:48;;;;;;;7.40;2.83;;;;;;;;;;6152967;28;20216;-67
2021/06/19 04:32:49;;;;;;;;;;;;;;;;;;6152679;28;20122;-67
2021/06/19 04:35:51;;;;;;;4.13;2.70;;;;;;;;;;6151457;28;19929;-67
2021/06/19 04:38:53;;;;;;;3.42;2.63;;;;;;;;;;6155387;28;20126;-67
2021/06/19 04:41:57;;;;;;;7.28;2.70;;;;;;;;;;6155246;28;20198;-67
2021/06/19 04:45:03;;;;;;;5.95;2.97;;;;;;;;;;6157100;28;20058;-68
2021/06/19 04:48:10;;;;;;;3.45;2.40;;;;;;;;;;6161079;28;20134;-68
2021/06/19 04:51:13;;;;;;;5.95;2.78;;;;;;;;;;6157756;28;20059;-68
2021/06/19 04:54:15;;;;;;;;;;;;;;;;;;6157772;28;20126;-68
2021/06/19 04:57:16;;;;;;;5.70;2.70;;;;;;;;;;6158882;28;20393;-68
2021/06/19 05:00:20;;;;;;;11.52;3.10;;;;;;;;;;6154741;28;20492;-68
2021/06/19 05:03:23;;;;;;;6.32;2.95;;;;;;;;;;6144440;28;20096;-68
2021/06/19 05:06:24;;;;;;;3.85;2.80;;;;;;;;;;6154424;28;20510;-68
2021/06/19 05:09:26;;;;;;;8.55;2.95;;;;;;;;;;6135064;28;20051;-69
2021/06/19 05:12:28;;;;;;;5.15;2.78;;;;;;;;;;6132551;28;20660;-68
2021/06/19 05:15:30;;;;;;;6.82;2.90;;;;;;;;;;6134403;28;20736;-68
2021/06/19 05:18:32;;;;;;;6.38;3.00;;;;;;;;;;6130987;28;20047;-67
2021/06/19 05:21:34;;;;;;;5.63;3.22;;;;;;;;;;6132285;28;20094;-68
2021/06/19 05:24:36;;;;;;;7.82;3.20;;;;;;;;;;6130481;28;20102;-68
2021/06/19 05:27:37;;;;;;;6.15;2.95;;;;;;;;;;6132641;28;20182;-68
2021/06/19 05:30:40;;;;;;;5.72;3.10;;;;;;;;;;6133153;28;20131;-67
2021/06/19 05:33:42;;;;;;;9.00;3.65;;;;;;;;;;6133365;28;20141;-69
2021/06/19 05:36:44;;;;;;;9.73;3.13;;;;;;;;;;6131501;28;20107;-67
2021/06/19 05:39:45;;;;;;;6.88;3.30;;;;;;;;;;6130912;28;20170;-68
2021/06/19 05:42:47;;;;;;;6.40;3.53;;;;;;;;;;6128904;28;20138;-68
2021/06/19 05:45:51;;;;;;;7.32;2.90;;;;;;;;;;6124928;28;20164;-69
2021/06/19 05:48:56;;;;;;;6.22;3.00;;;;;;;;;;6129828;28;20044;-68
2021/06/19 05:51:59;;;;;;;8.02;3.17;;;;;;;;;;6129587;28;20125;-67
2021/06/19 05:55:01;;;;;;;5.03;2.88;;;;;;;;;;6131944;28;20133;-68
2021/06/19 05:58:02;;;;;;;6.03;2.90;;;;;;;;;;6130582;28;20503;-68
2021/06/19 06:01:05;;;;;;;5.15;2.63;;;;;;;;;;6130682;28;20063;-68
2021/06/19 06:04:09;;;;;;;6.45;2.97;;;;;;;;;;6126886;28;20250;-68
2021/06/19 06:07:10;;;;;;;5.75;3.20;;;;;;;;;;6126636;28;20134;-68
2021/06/19 06:10:12;;;;;;;7.25;3.08;;;;;;;;;;6147934;28;21380;-68
2021/06/19 06:13:14;;;;;;;3.83;2.15;;;;;;;;;;6153359;28;20050;-68
2021/06/19 06:16:17;;;;;;;2.83;2.20;;;;;;;;;;6148659;28;20047;-68
2021/06/19 06:19:21;;;;;;;4.10;2.40;;;;;;;;;;6151778;28;20126;-69
2021/06/19 06:22:22;;;;;;;4.63;2.30;;;;;;;;;;6153712;28;20522;-68
2021/06/19 06:25:24;;;;;;;2.75;2.22;;;;;;;;;;6151439;28;20638;-67
2021/06/19 06:28:25;;;;;;;4.57;2.22;;;;;;;;;;6147089;28;20073;-67
2021/06/19 06:31:28;;;;;;;3.53;2.55;;;;;;;;;;6152801;28;20582;-68
2021/06/19 06:34:30;;;;;;;4.75;2.40;;;;;;;;;;6152074;28;20075;-66
2021/06/19 06:37:32;;;;;;;3.63;2.70;;;;;;;;;;6153035;28;20090;-66
2021/06/19 06:40:33;;;;;;;3.72;2.65;;;;;;;;;;6152805;28;20125;-66
2021/06/19 06:43:35;;;;;;;3.95;2.90;;;;;;;;;;6160643;28;20066;-66
2021/06/19 06:46:38;;;;;;;5.05;2.40;;;;;;;;;;6156409;28;20071;-65
2021/06/19 06:49:39;;;;;;;4.55;2.15;;;;;;;;;;6151384;28;20186;-66
2021/06/19 06:52:41;;;;;;;4.95;2.63;;;;;;;;;;6154902;28;20075;-67
2021/06/19 06:55:43;;;;;;;3.83;2.10;;;;;;;;;;6152280;28;20142;-67
2021/06/19 06:58:44;;;;;;;2.88;2.30;;;;;;;;;;6150950;28;20073;-67
2021/06/19 07:01:49;;;;;;;5.93;2.30;;;;;;;;;;6154847;28;20105;-67
2021/06/19 07:04:51;;;;;;;3.10;2.10;;;;;;;;;;6153444;28;20077;-67
2021/06/19 07:07:52;;;;;;;4.20;2.42;;;;;;;;;;6153573;28;20133;-67
2021/06/19 07:10:55;;;;;;;3.08;2.17;;;;;;;;;;6147850;28;20130;-67
2021/06/19 07:13:56;;;;;;;6.20;2.40;;;;;;;;;;6153946;28;20497;-67
2021/06/19 07:16:59;;;;;;;3.78;2.47;;;;;;;;;;6153557;28;20054;-67
2021/06/19 07:20:02;;;;;;;4.22;2.40;;;;;;;;;;6152228;28;20090;-67
2021/06/19 07:23:03;;;;;;;4.65;3.50;;;;;;;;;;6152212;28;20058;-67
2021/06/19 07:26:05;;;;;;;4.10;2.38;;;;;;;;;;6152990;28;20532;-67
2021/06/19 07:29:07;;;;;;;7.05;2.47;;;;;;;;;;6149451;28;20198;-67
2021/06/19 07:32:10;;;;;;;3.55;2.60;;;;;;;;;;6150508;28;20089;-67
2021/06/19 07:35:12;;;;;;;5.32;2.75;;;;;;;;;;6154566;28;20086;-66
2021/06/19 07:38:14;;;;;;;3.15;2.22;;;;;;;;;;6153561;28;20183;-68
2021/06/19 07:41:15;;;;;;;5.88;2.47;;;;;;;;;;6150129;28;20541;-67
2021/06/19 07:44:17;;;;;;;3.28;2.35;;;;;;;;;;6149784;28;20047;-67
2021/06/19 07:47:20;;;;;;;2.78;2.05;;;;;;;;;;6166066;28;20051;-67
2021/06/19 07:50:22;;;;;;;5.30;2.17;;;;;;;;;;6170760;28;20140;-66
2021/06/19 07:53:23;;;;;;;6.28;3.67;;;;;;;;;;6172714;28;20075;-66
2021/06/19 07:56:25;;;;;;;5.30;2.40;;;;;;;;;;6157879;28;20191;-67
2021/06/19 07:59:27;;;;;;;5.93;2.25;;;;;;;;;;6152418;28;20572;-67
2021/06/19 08:02:30;;;;;;;4.00;2.38;;;;;;;;;;6151467;28;20134;-67
2021/06/19 08:05:31;;;;;;;3.85;2.38;;;;;;;;;;6150478;28;20067;-67
2021/06/19 08:08:33;;;;;;;4.88;2.40;;;;;;;;;;6153648;28;20169;-66
2021/06/19 08:11:34;;;;;;;5.53;2.30;;;;;;;;;;6153828;28;20038;-67
2021/06/19 08:14:36;;;;;;;3.95;2.97;;;;;;;;;;6159076;28;20141;-66
2021/06/19 08:17:39;;;;;;;6.60;2.45;;;;;;;;;;6156779;28;20137;-66
2021/06/19 08:20:40;;;;;;;;;;;;;;;;;;6159802;28;20491;-66
2021/06/19 08:23:42;;;;;;;4.03;2.15;;;;;;;;;;6156167;28;19979;-66
2021/06/19 08:26:44;;;;;;;5.07;2.38;;;;;;;;;;6155925;28;20578;-66
2021/06/19 08:29:45;;;;;;;4.15;2.80;;;;;;;;;;6159043;28;20169;-67
2021/06/19 08:32:48;;;;;;;5.05;2.70;;;;;;;;;;6149755;28;20230;-66
2021/06/19 08:35:50;;;;;;;;;;;;;;;;;;6152393;28;20046;-66
2021/06/19 08:38:51;;;;;;;13.30;2.90;;;;;;;;;;6155507;28;20037;-67
2021/06/19 08:41:55;;;;;;;5.65;2.83;;;;;;;;;;6155344;28;20086;-66
2021/06/19 08:44:58;;;;;;;4.95;2.50;;;;;;;;;;6160294;28;20190;-66
2021/06/19 08:48:04;;;;;;;5.18;2.65;;;;;;;;;;6153498;28;20122;-67
2021/06/19 08:51:07;;;;;;;6.22;2.60;;;;;;;;;;6147162;28;20726;-67
2021/06/19 08:54:15;;;;;;;3.97;2.55;;;;;;;;;;6152309;28;20050;-67
2021/06/19 08:57:16;;;;;;;4.97;2.40;;;;;;;;;;6155191;28;20557;-67
2021/06/19 09:00:19;;;;;;;5.60;3.00;;;;;;;;;;6152975;28;20167;-69
2021/06/19 09:03:24;;;;;;;3.78;2.95;;;;;;;;;;6159427;28;20114;-67
2021/06/19 09:06:27;;;;;;;4.88;2.80;;;;;;;;;;6155270;28;20055;-66
2021/06/19 09:09:29;;;;;;;3.47;2.80;;;;;;;;;;6149436;28;20870;-66
2021/06/19 09:12:30;;;;;;;3.88;2.83;;;;;;;;;;6151740;28;20046;-69
2021/06/19 09:15:34;;;;;;;3.97;2.40;;;;;;;;;;6152459;28;20194;-69
2021/06/19 09:18:37;;;;;;;6.03;3.22;;;;;;;;;;6156244;28;20186;-67
2021/06/19 09:21:39;;;;;;;3.70;2.60;;;;;;;;;;6156264;28;20042;-67
2021/06/19 09:24:41;;;;;;;6.35;2.90;;;;;;;;;;6155303;28;20046;-66
2021/06/19 09:27:46;;;;;;;6.22;2.90;;;;;;;;;;6155122;28;20136;-66
2021/06/19 09:30:47;;;;;;;7.57;3.92;;;;;;;;;;6154455;28;20062;-66
2021/06/19 09:34:01;;;;;;;6.40;3.40;;;;;;;;;;6154437;28;20126;-66
2021/06/19 09:43:47;;;;;;;3.30;2.80;;;;;;;;;;5506962;26;20042;-67
2021/06/19 09:46:57;;;;;;;9.57;3.03;;;;;;;;;;6177952;28;20062;-67
2021/06/19 09:50:07;;;;;;;6.78;3.30;;;;;;;;;;6182993;28;20085;-67
2021/06/19 09:53:14;;;;;;;5.05;3.00;;;;;;;;;;6177252;28;20061;-68
2021/06/19 09:56:18;;;;;;;4.50;3.00;;;;;;;;;;6177660;28;20125;-67
2021/06/19 09:59:28;;;;;;;6.82;2.95;;;;;;;;;;6180860;28;20038;-67
2021/06/19 10:02:30;;;;;;;4.78;3.05;;;;;;;;;;6172663;28;20081;-67
2021/06/19 10:05:34;;;;;;;5.60;2.85;;;;;;;;;;6163228;28;20050;-68
2021/06/19 10:08:36;;;;;;;8.82;3.70;;;;;;;;;;6176555;28;20058;-68
2021/06/19 10:11:38;;;;;;;4.13;3.10;;;;;;;;;;6174160;28;20141;-69
2021/06/19 10:14:40;;;;;;;6.90;3.90;;;;;;;;;;6176744;28;20047;-70
2021/06/19 10:17:43;;;;;;;5.80;3.45;;;;;;;;;;6174595;28;20051;-68
2021/06/19 10:20:47;;;;;;;6.00;3.17;;;;;;;;;;6178369;28;20177;-69
2021/06/19 10:23:49;;;;;;;6.68;3.05;;;;;;;;;;6175425;28;20063;-70
2021/06/19 10:26:51;;;;;;;;;;;;;;;;;;6174554;28;20141;-70
2021/06/19 10:29:53;;;;;;;9.52;3.80;;;;;;;;;;6176840;28;20005;-67
2021/06/19 10:32:54;;;;;;;6.28;3.97;;;;;;;;;;6179073;28;20128;-66
2021/06/19 10:36:01;;;;;;;6.20;3.60;;;;;;;;;;6175150;28;20070;-68
2021/06/19 10:39:03;;;;;;;5.25;3.25;;;;;;;;;;6173162;28;20049;-69
2021/06/19 10:42:05;;;;;;;6.18;3.30;;;;;;;;;;6175555;28;20051;-68
2021/06/19 10:45:07;;;;;;;;;;;;;;;;;;6174416;28;20137;-67
2021/06/19 10:48:10;;;;;;;8.20;3.80;;;;;;;;;;6177328;28;20008;-68
2021/06/19 10:51:20;;;;;;;6.35;4.00;;;;;;;;;;6174476;28;20042;-66
2021/06/19 10:54:22;;;;;;;6.72;3.50;;;;;;;;;;6178598;28;20125;-68
2021/06/19 10:57:42;;;;;;;5.88;3.55;;;;;;;;;;6173606;28;20054;-69
2021/06/19 11:00:46;;;;;;;4.85;3.83;;;;;;;;;;6175333;28;20177;-70
2021/06/19 11:03:49;;;;;;;5.50;3.22;;;;;;;;;;6173750;28;20070;-70
2021/06/19 11:06:52;;;;;;;10.30;3.50;;;;;;;;;;6170330;28;20046;-70
2021/06/19 11:09:54;;;;;;;7.25;3.60;;;;;;;;;;6179671;28;20136;-69
2021/06/19 11:12:55;;;;;;;6.43;3.60;;;;;;;;;;6173324;28;21140;-68
2021/06/19 11:15:58;;;;;;;6.53;3.78;;;;;;;;;;6179306;28;20097;-68
2021/06/19 11:18:59;;;;;;;7.57;4.63;;;;;;;;;;6179969;28;20050;-72
2021/06/19 11:22:28;;;;;;;7.55;3.97;;;;;;;;;;6185802;28;20197;-68
2021/06/19 11:25:41;;;;;;;7.10;4.28;;;;;;;;;;6187792;28;20390;-69
2021/06/19 11:28:42;;;;;;;8.45;4.22;;;;;;;;;;6186043;28;20046;-68
2021/06/19 11:31:44;;;;;;;6.72;4.20;;;;;;;;;;6187242;28;20073;-68
2021/06/19 11:34:45;;;;;;;7.38;4.85;;;;;;;;;;6186161;28;20108;-68
2021/06/19 11:37:55;;;;;;;7.07;4.47;;;;;;;;;;6184047;28;20094;-68
2021/06/19 11:40:56;;;;;;;6.70;5.45;;;;;;;;;;6182584;28;20474;-68
2021/06/19 11:43:58;;;;;;;8.40;5.40;;;;;;;;;;6184580;28;20042;-68
2021/06/19 11:47:03;;;;;;;16.55;6.32;;;;;;;;;;6186452;28;20085;-68
2021/06/19 11:50:08;;;;;;;7.60;4.18;;;;;;;;;;6184697;28;20049;-68
2021/06/19 11:53:26;;;;;;;5.97;3.90;;;;;;;;;;6190179;28;20046;-69
2021/06/19 11:56:28;;;;;;;6.90;3.33;;;;;;;;;;6193295;28;20203;-68
2021/06/19 11:59:31;;;;;;;3.53;3.15;;;;;;;;;;6185454;28;20050;-68
2021/06/19 12:02:33;;;;;;;4.47;3.28;;;;;;;;;;6185837;28;20108;-68
2021/06/19 12:05:34;;;;;;;7.85;3.85;;;;;;;;;;6186911;28;20676;-69
2021/06/19 12:08:37;;;;;;;4.43;3.27;;;;;;;;;;6189850;28;20112;-68
2021/06/19 12:11:40;;;;;;;5.82;2.70;;;;;;;;;;6180366;28;20536;-70
2021/06/19 12:14:42;;;;;;;4.00;2.58;;;;;;;;;;6188237;28;20128;-70
2021/06/19 12:17:44;;;;;;;3.90;2.70;;;;;;;;;;6184764;28;21164;-68
2021/06/19 12:20:57;;;;;;;4.07;2.70;;;;;;;;;;6186545;28;20050;-67
2021/06/19 12:24:00;;;;;;;5.63;3.33;;;;;;;;;;6184830;28;20232;-68
2021/06/19 12:27:11;;;;;;;4.10;2.88;;;;;;;;;;6185197;28;20362;-68
2021/06/19 12:30:14;;;;;;;4.50;2.75;;;;;;;;;;6187717;28;20050;-67
2021/06/19 12:33:23;;;;;;;3.47;3.15;;;;;;;;;;6184072;28;20104;-68
2021/06/19 12:36:26;;;;;;;3.78;3.00;;;;;;;;;;6185015;28;20058;-67
2021/06/19 12:39:31;;;;;;;5.43;2.90;;;;;;;;;;6185263;28;20043;-69
2021/06/19 12:42:35;;;;;;;6.30;2.83;;;;;;;;;;6182599;28;20172;-69
2021/06/19 12:45:38;;;;;;;5.88;3.20;;;;;;;;;;6180715;28;20138;-70
2021/06/19 12:48:40;;;;;;;5.82;3.00;;;;;;;;;;6190215;28;20065;-72
2021/06/19 12:51:41;;;;;;;4.63;3.05;;;;;;;;;;6191533;28;20120;-73
2021/06/19 12:54:44;;;;;;;6.10;3.20;;;;;;;;;;6190380;28;20276;-73
2021/06/19 12:57:46;;;;;;;5.45;3.50;;;;;;;;;;6183102;28;20132;-73
2021/06/19 13:00:49;;;;;;;6.72;3.58;;;;;;;;;;6186944;28;20152;-73
2021/06/19 13:03:52;;;;;;;4.45;3.50;;;;;;;;;;6186913;28;20165;-74
2021/06/19 13:07:04;;;;;;;9.00;3.33;;;;;;;;;;6183671;28;20137;-73
2021/06/19 13:10:08;;;;;;;4.20;3.35;;;;;;;;;;6185458;28;20038;-73
2021/06/19 13:13:10;;;;;;;6.25;3.40;;;;;;;;;;6185020;28;20137;-73
2021/06/19 13:16:12;;;;;;;4.30;3.00;;;;;;;;;;6162082;28;20137;-73
2021/06/19 13:19:16;;;;;;;;;;;;;;;;;;6182976;28;20181;-73
2021/06/19 13:22:23;;;;;;;4.57;2.92;;;;;;;;;;6180233;28;20414;-72
2021/06/19 13:25:26;;;;;;;5.85;3.10;;;;;;;;;;6185191;28;20100;-73
2021/06/19 13:28:37;;;;;;;3.60;3.15;;;;;;;;;;6182654;28;20177;-73
2021/06/19 13:31:40;;;;;;;3.42;3.08;;;;;;;;;;6186726;28;20042;-73
2021/06/19 13:34:42;;;;;;;4.25;3.10;;;;;;;;;;6185543;28;20486;-73
2021/06/19 13:37:43;;;;;;;6.60;3.27;;;;;;;;;;6181749;28;20133;-73
2021/06/19 13:40:46;;;;;;;7.53;3.95;;;;;;;;;;6182378;28;20497;-73
2021/06/19 13:43:48;;;;;;;4.43;4.03;;;;;;;;;;6176170;28;20165;-73
2021/06/19 13:46:51;;;;;;;6.50;3.50;;;;;;;;;;6183397;28;20038;-73
2021/06/19 13:49:53;;;;;;;4.72;3.83;;;;;;;;;;6182442;28;20177;-73
2021/06/19 13:52:55;;;;;;;;;;;;;;;;;;6182187;28;20180;-74
2021/06/19 13:55:59;;;;;;;4.90;3.67;;;;;;;;;;6186768;28;20339;-73
2021/06/19 13:59:00;;;;;;;4.15;3.53;;;;;;;;;;6183100;28;20046;-73
2021/06/19 14:02:02;;;;;;;4.20;3.70;;;;;;;;;;6182707;28;20050;-69
2021/06/19 14:05:04;;;;;;;6.50;3.40;;;;;;;;;;6183816;28;20046;-73
2021/06/19 14:08:06;;;;;;;7.85;3.67;;;;;;;;;;6184344;28;20035;-73
2021/06/19 14:11:09;;;;;;;5.25;3.60;;;;;;;;;;6181732;28;20121;-73
2021/06/19 14:14:11;;;;;;;5.97;3.30;;;;;;;;;;6186313;28;21267;-73
2021/06/19 14:17:13;;;;;;;6.53;3.10;;;;;;;;;;6183162;28;20034;-73
2021/06/19 14:20:15;;;;;;;4.57;3.60;;;;;;;;;;6193759;28;20069;-71
2021/06/19 14:23:16;;;;;;;5.15;3.88;;;;;;;;;;6188583;28;20513;-71
2021/06/19 14:26:21;;;;;;;4.93;3.30;;;;;;;;;;6188269;28;20438;-71
2021/06/19 14:29:23;;;;;;;5.25;3.65;;;;;;;;;;6184194;28;20046;-71
2021/06/19 14:32:28;;;;;;;6.65;3.85;;;;;;;;;;6189138;28;20077;-72
2021/06/19 14:35:30;;;;;;;5.35;3.30;;;;;;;;;;6185799;28;20038;-72
2021/06/19 14:38:32;;;;;;;5.43;3.50;;;;;;;;;;6189859;28;20077;-72
2021/06/19 14:41:35;;;;;;;4.05;3.42;;;;;;;;;;6181149;28;20171;-72
2021/06/19 14:44:37;;;;;;;4.00;3.55;;;;;;;;;;6176875;28;20042;-72
2021/06/19 14:47:41;;;;;;;4.95;3.63;;;;;;;;;;6182549;28;20057;-72
2021/06/19 14:50:43;;;;;;;6.47;3.60;;;;;;;;;;6182822;28;20058;-72
2021/06/19 14:53:44;;;;;;;5.60;3.13;;;;;;;;;;6186413;28;20532;-72
2021/06/19 14:56:47;;;;;;;7.03;4.10;;;;;;;;;;6180170;28;20062;-72
2021/06/19 14:59:49;;;;;;;7.63;3.63;;;;;;;;;;6180630;28;20073;-72
2021/06/19 15:02:51;;;;;;;5.95;3.75;;;;;;;;;;6186631;28;20137;-72
2021/06/19 15:05:55;;;;;;;3.70;3.30;;;;;;;;;;6162306;28;20105;-72
2021/06/19 15:08:56;;;;;;;3.92;3.50;;;;;;;;;;6187830;28;20042;-73
2021/06/19 15:11:59;;;;;;;5.97;3.50;;;;;;;;;;6181338;28;20671;-72
2021/06/19 15:15:01;;;;;;;3.92;3.13;;;;;;;;;;6181643;28;20133;-72
2021/06/19 15:18:03;;;;;;;4.20;3.20;;;;;;;;;;6188163;28;20093;-72
2021/06/19 15:21:05;;;;;;;9.43;3.38;;;;;;;;;;6178410;28;20536;-72
2021/06/19 15:24:07;;;;;;;3.67;3.17;;;;;;;;;;6187203;28;20448;-72
2021/06/19 15:27:11;;;;;;;7.00;3.45;;;;;;;;;;6187883;28;20038;-73
2021/06/19 15:30:14;;;;;;;5.80;3.28;;;;;;;;;;6183389;28;20206;-72
2021/06/19 15:33:16;;;;;;;5.93;3.10;;;;;;;;;;6191693;28;20039;-72
2021/06/19 15:36:17;;;;;;;5.57;3.30;;;;;;;;;;6186252;28;20149;-72
2021/06/19 15:39:19;;;;;;;3.50;3.20;;;;;;;;;;6190135;28;20472;-72
2021/06/19 15:42:22;;;;;;;4.95;3.13;;;;;;;;;;6192217;28;20046;-72
2021/06/19 15:45:23;;;;;;;7.78;3.30;;;;;;;;;;6175614;28;20078;-73
2021/06/19 15:48:25;;;;;;;6.07;3.35;;;;;;;;;;6186184;28;20083;-72
2021/06/19 15:51:27;;;;;;;4.57;3.30;;;;;;;;;;6185793;28;20133;-72
2021/06/19 15:54:28;;;;;;;6.35;3.25;;;;;;;;;;6187988;28;20055;-72
2021/06/19 15:57:31;;;;;;;3.88;2.65;;;;;;;;;;6190779;28;20118;-70
2021/06/19 16:00:33;;;;;;;3.88;2.90;;;;;;;;;;6190009;28;20097;-70
2021/06/19 16:03:35;;;;;;;4.00;2.70;;;;;;;;;;6195013;28;20129;-72
2021/06/19 16:06:36;;;;;;;5.75;2.90;;;;;;;;;;6184285;28;20118;-71
2021/06/19 16:09:38;;;;;;;3.75;3.17;;;;;;;;;;6183550;28;20112;-70
2021/06/19 16:12:41;;;;;;;5.22;3.15;;;;;;;;;;6187417;28;20126;-71
2021/06/19 16:15:43;;;;;;;5.25;3.22;;;;;;;;;;6192740;28;20065;-69
2021/06/19 16:18:44;;;;;;;6.23;3.30;;;;;;;;;;6191529;28;20440;-69
2021/06/19 16:21:46;;;;;;;5.22;3.38;;;;;;;;;;6189161;28;20562;-70
2021/06/19 16:24:49;;;;;;;5.00;3.30;;;;;;;;;;6190595;28;20181;-69
2021/06/19 16:27:52;;;;;;;;;;;;;;;;;;6192297;28;20443;-69
2021/06/19 16:30:54;;;;;;;6.60;3.53;;;;;;;;;;6189746;28;19922;-70
2021/06/19 16:33:56;;;;;;;4.00;3.27;;;;;;;;;;6188921;28;20068;-69
2021/06/19 16:37:00;;;;;;;6.80;3.00;;;;;;;;;;6175353;28;20973;-69
2021/06/19 16:40:01;;;;;;;4.10;3.10;;;;;;;;;;6181751;28;20111;-70
2021/06/19 16:43:04;;;;;;;6.68;3.20;;;;;;;;;;6182783;28;20188;-70
2021/06/19 16:46:06;;;;;;;6.75;3.33;;;;;;;;;;6175086;28;20042;-70
2021/06/19 16:49:09;;;;;;;7.15;3.42;;;;;;;;;;6183308;28;20038;-70
2021/06/19 16:52:11;;;;;;;5.40;3.33;;;;;;;;;;6186819;28;20078;-70
2021/06/19 16:55:14;;;;;;;6.03;3.47;;;;;;;;;;6189451;28;20056;-70
2021/06/19 16:58:17;;;;;;;5.03;3.50;;;;;;;;;;6180137;28;20081;-70
2021/06/19 17:01:18;;;;;;;5.65;3.67;;;;;;;;;;6186808;28;20038;-71
2021/06/19 17:04:20;;;;;;;3.38;2.72;;;;;;;;;;6188107;28;20152;-69
2021/06/19 17:07:22;;;;;;;5.00;2.85;;;;;;;;;;6186723;28;20062;-72
2021/06/19 17:10:24;;;;;;;4.15;3.28;;;;;;;;;;6184519;28;20046;-70
2021/06/19 17:13:32;;;;;;;4.65;3.20;;;;;;;;;;6187216;28;20078;-71
2021/06/19 17:16:34;;;;;;;6.00;3.13;;;;;;;;;;6186246;28;20054;-72
2021/06/19 17:19:36;;;;;;;5.20;2.97;;;;;;;;;;6186307;28;20047;-70
2021/06/19 17:22:38;;;;;;;6.10;3.05;;;;;;;;;;6187857;28;20414;-70
2021/06/19 17:25:39;;;;;;;4.43;3.20;;;;;;;;;;6184865;28;20083;-71
2021/06/19 17:28:44;;;;;;;4.10;3.30;;;;;;;;;;6151268;28;20149;-70
2021/06/19 17:31:46;;;;;;;4.60;3.30;;;;;;;;;;6181995;28;20124;-71
2021/06/19 17:34:47;;;;;;;9.30;3.35;;;;;;;;;;6184183;28;20113;-71
2021/06/19 17:37:49;;;;;;;3.40;2.85;;;;;;;;;;6185467;28;20163;-71
2021/06/19 17:40:51;;;;;;;7.30;5.18;;;;;;;;;;6182355;28;20117;-70
2021/06/19 17:43:55;;;;;;;6.00;3.55;;;;;;;;;;6185533;28;20173;-72
2021/06/19 17:46:56;;;;;;;9.13;4.07;;;;;;;;;;6184621;28;20129;-71
2021/06/19 17:49:58;;;;;;;6.25;3.85;;;;;;;;;;6181462;28;20050;-71
2021/06/19 17:53:04;;;;;;;5.43;3.92;;;;;;;;;;6170883;28;20181;-71
2021/06/19 17:56:06;;;;;;;7.07;3.55;;;;;;;;;;6182378;28;20043;-71
2021/06/19 17:59:09;;;;;;;7.57;2.95;;;;;;;;;;6189613;28;20131;-71
2021/06/19 18:02:11;;;;;;;;;;;;;;;;;;6185118;28;20070;-71
2021/06/19 18:05:15;;;;;;;4.30;3.00;;;;;;;;;;6187514;28;19917;-70
2021/06/19 18:08:16;;;;;;;6.10;3.20;;;;;;;;;;6184057;28;20082;-71
2021/06/19 18:11:18;;;;;;;6.75;3.30;;;;;;;;;;6189694;28;20141;-71
2021/06/19 18:14:21;;;;;;;10.30;3.85;;;;;;;;;;6189211;28;20042;-71
2021/06/19 18:17:23;;;;;;;9.52;3.17;;;;;;;;;;6181013;28;20064;-72
2021/06/19 18:20:26;;;;;;;5.68;3.40;;;;;;;;;;6184681;28;20143;-70
2021/06/19 18:23:27;;;;;;;9.95;3.67;;;;;;;;;;6182211;28;20054;-67
2021/06/19 18:26:29;;;;;;;4.90;3.38;;;;;;;;;;6184656;28;20050;-70